sensor_id;sensor_type;location;lat;lon;timestamp;P1;durP1;ratioP1;P2;durP2;ratioP2
13560;SDS011;6852;51.686;5.314;2023-05-17T00:00:57;10.20;;;2.97;;
13560;SDS011;6852;51.686;5.314;2023-05-17T00:03:24;9.10;;;3.50;;
13560;SDS011;6852;51.686;5.314;2023-05-17T00:05:51;11.07;;;3.20;;
13560;SDS011;6852;51.686;5.314;2023-05-17T00:08:18;12.33;;;3.43;;
13560;SDS011;6852;51.686;5.314;2023-05-17T00:10:45;7.60;;;3.27;;
13560;SDS011;6852;51.686;5.314;2023-05-17T00:13:12;8.33;;;2.77;;
13560;SDS011;6852;51.686;5.314;2023-05-17T00:15:39;11.27;;;3.50;;
13560;SDS011;6852;51.686;5.314;2023-05-17T00:18:06;11.50;;;3.17;;
13560;SDS011;6852;51.686;5.314;2023-05-17T00:20:33;10.17;;;3.37;;
13560;SDS011;6852;51.686;5.314;2023-05-17T00:23:01;7.57;;;3.03;;
13560;SDS011;6852;51.686;5.314;2023-05-17T00:25:28;11.00;;;3.77;;
13560;SDS011;6852;51.686;5.314;2023-05-17T00:27:55;7.20;;;2.73;;
13560;SDS011;6852;51.686;5.314;2023-05-17T00:30:22;6.53;;;3.70;;
13560;SDS011;6852;51.686;5.314;2023-05-17T00:32:49;9.07;;;3.03;;
13560;SDS011;6852;51.686;5.314;2023-05-17T00:35:16;6.67;;;3.00;;
13560;SDS011;6852;51.686;5.314;2023-05-17T00:37:43;8.37;;;3.23;;
13560;SDS011;6852;51.686;5.314;2023-05-17T00:40:13;4.43;;;2.93;;
13560;SDS011;6852;51.686;5.314;2023-05-17T00:42:41;10.70;;;3.50;;
13560;SDS011;6852;51.686;5.314;2023-05-17T00:45:08;8.40;;;3.97;;
13560;SDS011;6852;51.686;5.314;2023-05-17T00:47:36;12.17;;;3.60;;
13560;SDS011;6852;51.686;5.314;2023-05-17T00:50:03;12.20;;;3.90;;
13560;SDS011;6852;51.686;5.314;2023-05-17T00:52:31;7.63;;;3.10;;
13560;SDS011;6852;51.686;5.314;2023-05-17T00:54:58;9.37;;;2.90;;
13560;SDS011;6852;51.686;5.314;2023-05-17T00:57:25;6.00;;;2.80;;
13560;SDS011;6852;51.686;5.314;2023-05-17T00:59:54;4.73;;;3.00;;
13560;SDS011;6852;51.686;5.314;2023-05-17T01:02:21;6.87;;;3.50;;
13560;SDS011;6852;51.686;5.314;2023-05-17T01:04:49;7.93;;;3.30;;
13560;SDS011;6852;51.686;5.314;2023-05-17T01:07:16;4.60;;;2.93;;
13560;SDS011;6852;51.686;5.314;2023-05-17T01:09:43;8.50;;;2.90;;
13560;SDS011;6852;51.686;5.314;2023-05-17T01:14:49;11.87;;;3.10;;
13560;SDS011;6852;51.686;5.314;2023-05-17T01:20:25;8.47;;;3.60;;
13560;SDS011;6852;51.686;5.314;2023-05-17T01:23:02;8.70;;;3.60;;
13560;SDS011;6852;51.686;5.314;2023-05-17T01:28:12;9.97;;;3.87;;
13560;SDS011;6852;51.686;5.314;2023-05-17T01:30:41;8.77;;;3.70;;
13560;SDS011;6852;51.686;5.314;2023-05-17T01:33:11;11.83;;;4.10;;
13560;SDS011;6852;51.686;5.314;2023-05-17T01:35:38;9.17;;;4.13;;
13560;SDS011;6852;51.686;5.314;2023-05-17T01:38:05;9.30;;;3.40;;
13560;SDS011;6852;51.686;5.314;2023-05-17T01:40:32;6.63;;;3.77;;
13560;SDS011;6852;51.686;5.314;2023-05-17T01:43:15;9.10;;;4.10;;
13560;SDS011;6852;51.686;5.314;2023-05-17T01:46:11;8.13;;;3.53;;
13560;SDS011;6852;51.686;5.314;2023-05-17T01:48:46;11.77;;;3.83;;
13560;SDS011;6852;51.686;5.314;2023-05-17T01:51:46;9.20;;;3.43;;
13560;SDS011;6852;51.686;5.314;2023-05-17T01:54:16;10.17;;;3.70;;
13560;SDS011;6852;51.686;5.314;2023-05-17T01:56:50;11.87;;;3.33;;
13560;SDS011;6852;51.686;5.314;2023-05-17T01:59:22;10.53;;;4.00;;
13560;SDS011;6852;51.686;5.314;2023-05-17T02:01:57;8.60;;;3.53;;
13560;SDS011;6852;51.686;5.314;2023-05-17T02:04:32;9.73;;;3.27;;
13560;SDS011;6852;51.686;5.314;2023-05-17T02:06:59;8.13;;;3.20;;
13560;SDS011;6852;51.686;5.314;2023-05-17T02:09:27;9.40;;;4.03;;
13560;SDS011;6852;51.686;5.314;2023-05-17T02:11:54;7.80;;;3.20;;
13560;SDS011;6852;51.686;5.314;2023-05-17T02:14:21;9.17;;;3.73;;
13560;SDS011;6852;51.686;5.314;2023-05-17T02:16:47;9.30;;;3.87;;
13560;SDS011;6852;51.686;5.314;2023-05-17T02:19:14;8.67;;;3.57;;
13560;SDS011;6852;51.686;5.314;2023-05-17T02:21:41;10.23;;;4.43;;
13560;SDS011;6852;51.686;5.314;2023-05-17T02:24:08;12.33;;;4.27;;
13560;SDS011;6852;51.686;5.314;2023-05-17T02:26:35;14.27;;;4.40;;
13560;SDS011;6852;51.686;5.314;2023-05-17T02:29:02;7.30;;;4.43;;
13560;SDS011;6852;51.686;5.314;2023-05-17T02:31:29;9.90;;;4.10;;
13560;SDS011;6852;51.686;5.314;2023-05-17T02:33:56;6.40;;;3.80;;
13560;SDS011;6852;51.686;5.314;2023-05-17T02:36:23;12.70;;;4.00;;
13560;SDS011;6852;51.686;5.314;2023-05-17T02:38:50;9.70;;;4.57;;
13560;SDS011;6852;51.686;5.314;2023-05-17T02:41:16;9.67;;;4.87;;
13560;SDS011;6852;51.686;5.314;2023-05-17T02:43:43;10.67;;;4.13;;
13560;SDS011;6852;51.686;5.314;2023-05-17T02:46:10;10.20;;;4.07;;
13560;SDS011;6852;51.686;5.314;2023-05-17T02:48:37;8.90;;;3.93;;
13560;SDS011;6852;51.686;5.314;2023-05-17T02:51:04;12.23;;;4.87;;
13560;SDS011;6852;51.686;5.314;2023-05-17T02:53:31;7.67;;;4.03;;
13560;SDS011;6852;51.686;5.314;2023-05-17T02:55:58;9.37;;;4.57;;
13560;SDS011;6852;51.686;5.314;2023-05-17T02:58:25;9.97;;;5.10;;
13560;SDS011;6852;51.686;5.314;2023-05-17T03:00:53;13.10;;;4.87;;
13560;SDS011;6852;51.686;5.314;2023-05-17T03:03:19;11.00;;;4.60;;
13560;SDS011;6852;51.686;5.314;2023-05-17T03:05:47;7.33;;;4.10;;
13560;SDS011;6852;51.686;5.314;2023-05-17T03:08:13;13.03;;;4.53;;
13560;SDS011;6852;51.686;5.314;2023-05-17T03:10:40;12.30;;;4.60;;
13560;SDS011;6852;51.686;5.314;2023-05-17T03:13:07;7.53;;;4.67;;
13560;SDS011;6852;51.686;5.314;2023-05-17T03:15:34;9.87;;;4.37;;
13560;SDS011;6852;51.686;5.314;2023-05-17T03:18:01;13.03;;;5.07;;
13560;SDS011;6852;51.686;5.314;2023-05-17T03:20:28;8.97;;;4.53;;
13560;SDS011;6852;51.686;5.314;2023-05-17T03:22:55;8.93;;;4.70;;
13560;SDS011;6852;51.686;5.314;2023-05-17T03:25:22;14.70;;;4.57;;
13560;SDS011;6852;51.686;5.314;2023-05-17T03:27:49;10.10;;;4.57;;
13560;SDS011;6852;51.686;5.314;2023-05-17T03:30:16;12.17;;;4.40;;
13560;SDS011;6852;51.686;5.314;2023-05-17T03:32:43;10.60;;;4.80;;
13560;SDS011;6852;51.686;5.314;2023-05-17T03:35:11;11.43;;;4.10;;
13560;SDS011;6852;51.686;5.314;2023-05-17T03:37:37;10.77;;;4.33;;
13560;SDS011;6852;51.686;5.314;2023-05-17T03:40:05;11.67;;;4.57;;
13560;SDS011;6852;51.686;5.314;2023-05-17T03:42:32;11.17;;;4.73;;
13560;SDS011;6852;51.686;5.314;2023-05-17T03:44:59;6.47;;;3.40;;
13560;SDS011;6852;51.686;5.314;2023-05-17T03:47:26;13.30;;;4.43;;
13560;SDS011;6852;51.686;5.314;2023-05-17T03:49:53;10.97;;;4.43;;
13560;SDS011;6852;51.686;5.314;2023-05-17T03:52:20;9.00;;;4.50;;
13560;SDS011;6852;51.686;5.314;2023-05-17T03:54:47;19.73;;;4.20;;
13560;SDS011;6852;51.686;5.314;2023-05-17T03:57:14;12.87;;;4.27;;
13560;SDS011;6852;51.686;5.314;2023-05-17T03:59:40;11.20;;;4.57;;
13560;SDS011;6852;51.686;5.314;2023-05-17T04:02:07;10.93;;;4.00;;
13560;SDS011;6852;51.686;5.314;2023-05-17T04:04:34;11.27;;;4.43;;
13560;SDS011;6852;51.686;5.314;2023-05-17T04:07:01;9.93;;;4.40;;
13560;SDS011;6852;51.686;5.314;2023-05-17T04:09:29;11.57;;;4.60;;
13560;SDS011;6852;51.686;5.314;2023-05-17T04:11:57;12.17;;;4.70;;
13560;SDS011;6852;51.686;5.314;2023-05-17T04:14:23;11.63;;;4.23;;
13560;SDS011;6852;51.686;5.314;2023-05-17T04:16:51;14.40;;;4.60;;
13560;SDS011;6852;51.686;5.314;2023-05-17T04:19:17;14.77;;;4.13;;
13560;SDS011;6852;51.686;5.314;2023-05-17T04:21:45;10.90;;;4.33;;
13560;SDS011;6852;51.686;5.314;2023-05-17T04:24:11;11.97;;;4.30;;
13560;SDS011;6852;51.686;5.314;2023-05-17T04:26:38;8.93;;;4.03;;
13560;SDS011;6852;51.686;5.314;2023-05-17T04:29:05;16.63;;;4.40;;
13560;SDS011;6852;51.686;5.314;2023-05-17T04:31:33;11.13;;;3.90;;
13560;SDS011;6852;51.686;5.314;2023-05-17T04:33:59;9.47;;;4.20;;
13560;SDS011;6852;51.686;5.314;2023-05-17T04:36:27;13.80;;;4.27;;
13560;SDS011;6852;51.686;5.314;2023-05-17T04:38:55;17.37;;;4.67;;
13560;SDS011;6852;51.686;5.314;2023-05-17T04:41:23;11.17;;;4.33;;
13560;SDS011;6852;51.686;5.314;2023-05-17T04:43:49;10.60;;;4.53;;
13560;SDS011;6852;51.686;5.314;2023-05-17T04:46:16;11.33;;;4.80;;
13560;SDS011;6852;51.686;5.314;2023-05-17T04:48:43;8.63;;;4.30;;
13560;SDS011;6852;51.686;5.314;2023-05-17T04:51:10;12.67;;;5.10;;
13560;SDS011;6852;51.686;5.314;2023-05-17T04:53:37;9.37;;;4.40;;
13560;SDS011;6852;51.686;5.314;2023-05-17T04:56:04;9.77;;;4.73;;
13560;SDS011;6852;51.686;5.314;2023-05-17T04:58:32;11.30;;;4.30;;
13560;SDS011;6852;51.686;5.314;2023-05-17T05:00:59;12.83;;;5.20;;
13560;SDS011;6852;51.686;5.314;2023-05-17T05:03:26;16.37;;;5.30;;
13560;SDS011;6852;51.686;5.314;2023-05-17T05:05:53;14.80;;;5.00;;
13560;SDS011;6852;51.686;5.314;2023-05-17T05:08:20;12.90;;;4.97;;
13560;SDS011;6852;51.686;5.314;2023-05-17T05:10:47;8.40;;;4.93;;
13560;SDS011;6852;51.686;5.314;2023-05-17T05:13:13;8.20;;;3.63;;
13560;SDS011;6852;51.686;5.314;2023-05-17T05:15:40;10.83;;;4.33;;
13560;SDS011;6852;51.686;5.314;2023-05-17T05:18:07;9.47;;;4.20;;
13560;SDS011;6852;51.686;5.314;2023-05-17T05:20:34;11.90;;;4.43;;
13560;SDS011;6852;51.686;5.314;2023-05-17T05:23:01;7.50;;;3.77;;
13560;SDS011;6852;51.686;5.314;2023-05-17T05:25:31;12.80;;;3.97;;
13560;SDS011;6852;51.686;5.314;2023-05-17T05:27:59;6.87;;;3.27;;
13560;SDS011;6852;51.686;5.314;2023-05-17T05:30:26;10.40;;;3.77;;
13560;SDS011;6852;51.686;5.314;2023-05-17T05:32:53;8.13;;;3.30;;
13560;SDS011;6852;51.686;5.314;2023-05-17T05:35:20;12.77;;;5.80;;
13560;SDS011;6852;51.686;5.314;2023-05-17T05:37:55;16.07;;;3.57;;
13560;SDS011;6852;51.686;5.314;2023-05-17T05:40:23;10.23;;;3.60;;
13560;SDS011;6852;51.686;5.314;2023-05-17T05:42:50;11.03;;;3.43;;
13560;SDS011;6852;51.686;5.314;2023-05-17T05:45:17;13.67;;;3.67;;
13560;SDS011;6852;51.686;5.314;2023-05-17T05:47:44;7.87;;;3.43;;
13560;SDS011;6852;51.686;5.314;2023-05-17T05:50:11;10.37;;;3.20;;
13560;SDS011;6852;51.686;5.314;2023-05-17T05:52:38;9.97;;;3.57;;
13560;SDS011;6852;51.686;5.314;2023-05-17T05:55:05;16.83;;;3.87;;
13560;SDS011;6852;51.686;5.314;2023-05-17T05:57:32;14.57;;;3.40;;
13560;SDS011;6852;51.686;5.314;2023-05-17T05:59:59;16.03;;;3.50;;
13560;SDS011;6852;51.686;5.314;2023-05-17T06:02:29;11.67;;;3.30;;
13560;SDS011;6852;51.686;5.314;2023-05-17T06:04:56;8.83;;;3.77;;
13560;SDS011;6852;51.686;5.314;2023-05-17T06:07:23;7.00;;;2.60;;
13560;SDS011;6852;51.686;5.314;2023-05-17T06:09:50;15.83;;;2.60;;
13560;SDS011;6852;51.686;5.314;2023-05-17T06:12:16;9.53;;;2.30;;
13560;SDS011;6852;51.686;5.314;2023-05-17T06:14:43;10.87;;;2.90;;
13560;SDS011;6852;51.686;5.314;2023-05-17T06:17:10;8.17;;;2.60;;
13560;SDS011;6852;51.686;5.314;2023-05-17T06:19:37;13.40;;;2.80;;
13560;SDS011;6852;51.686;5.314;2023-05-17T06:22:04;8.20;;;2.13;;
13560;SDS011;6852;51.686;5.314;2023-05-17T06:24:31;10.57;;;2.50;;
13560;SDS011;6852;51.686;5.314;2023-05-17T06:26:58;12.00;;;2.57;;
13560;SDS011;6852;51.686;5.314;2023-05-17T06:29:25;7.67;;;1.90;;
13560;SDS011;6852;51.686;5.314;2023-05-17T06:31:52;7.23;;;2.70;;
13560;SDS011;6852;51.686;5.314;2023-05-17T06:34:21;11.13;;;2.67;;
13560;SDS011;6852;51.686;5.314;2023-05-17T06:36:48;12.27;;;2.03;;
13560;SDS011;6852;51.686;5.314;2023-05-17T06:39:15;9.53;;;2.07;;
13560;SDS011;6852;51.686;5.314;2023-05-17T06:41:42;12.53;;;2.20;;
13560;SDS011;6852;51.686;5.314;2023-05-17T06:44:09;8.30;;;2.43;;
13560;SDS011;6852;51.686;5.314;2023-05-17T06:46:37;13.53;;;2.30;;
13560;SDS011;6852;51.686;5.314;2023-05-17T06:49:03;9.27;;;2.40;;
13560;SDS011;6852;51.686;5.314;2023-05-17T06:51:31;6.07;;;1.57;;
13560;SDS011;6852;51.686;5.314;2023-05-17T06:53:58;13.50;;;2.30;;
13560;SDS011;6852;51.686;5.314;2023-05-17T06:56:25;10.00;;;2.10;;
13560;SDS011;6852;51.686;5.314;2023-05-17T06:58:52;8.30;;;2.10;;
13560;SDS011;6852;51.686;5.314;2023-05-17T07:01:19;8.37;;;1.93;;
13560;SDS011;6852;51.686;5.314;2023-05-17T07:03:46;12.23;;;2.23;;
13560;SDS011;6852;51.686;5.314;2023-05-17T07:06:13;19.67;;;2.40;;
13560;SDS011;6852;51.686;5.314;2023-05-17T07:08:40;8.40;;;1.80;;
13560;SDS011;6852;51.686;5.314;2023-05-17T07:11:07;6.37;;;1.40;;
13560;SDS011;6852;51.686;5.314;2023-05-17T07:13:34;7.53;;;3.07;;
13560;SDS011;6852;51.686;5.314;2023-05-17T07:16:01;16.60;;;2.10;;
13560;SDS011;6852;51.686;5.314;2023-05-17T07:18:28;7.43;;;1.70;;
13560;SDS011;6852;51.686;5.314;2023-05-17T07:20:55;12.47;;;1.87;;
13560;SDS011;6852;51.686;5.314;2023-05-17T07:23:22;9.07;;;1.60;;
13560;SDS011;6852;51.686;5.314;2023-05-17T07:25:49;6.40;;;1.77;;
13560;SDS011;6852;51.686;5.314;2023-05-17T07:28:17;7.43;;;1.40;;
13560;SDS011;6852;51.686;5.314;2023-05-17T07:30:44;11.90;;;2.60;;
13560;SDS011;6852;51.686;5.314;2023-05-17T07:33:11;10.30;;;2.00;;
13560;SDS011;6852;51.686;5.314;2023-05-17T07:35:38;7.90;;;2.13;;
13560;SDS011;6852;51.686;5.314;2023-05-17T07:38:05;8.20;;;1.77;;
13560;SDS011;6852;51.686;5.314;2023-05-17T07:40:32;7.73;;;1.80;;
13560;SDS011;6852;51.686;5.314;2023-05-17T07:42:59;11.97;;;2.23;;
13560;SDS011;6852;51.686;5.314;2023-05-17T07:45:26;6.10;;;1.43;;
13560;SDS011;6852;51.686;5.314;2023-05-17T07:47:54;8.63;;;1.70;;
13560;SDS011;6852;51.686;5.314;2023-05-17T07:50:21;9.17;;;1.97;;
13560;SDS011;6852;51.686;5.314;2023-05-17T07:52:48;5.47;;;1.87;;
13560;SDS011;6852;51.686;5.314;2023-05-17T07:55:15;6.90;;;1.50;;
13560;SDS011;6852;51.686;5.314;2023-05-17T07:57:42;9.00;;;1.47;;
13560;SDS011;6852;51.686;5.314;2023-05-17T08:00:10;4.67;;;1.57;;
13560;SDS011;6852;51.686;5.314;2023-05-17T08:02:38;7.70;;;1.70;;
13560;SDS011;6852;51.686;5.314;2023-05-17T08:05:05;4.90;;;1.40;;
13560;SDS011;6852;51.686;5.314;2023-05-17T08:07:33;7.43;;;1.30;;
13560;SDS011;6852;51.686;5.314;2023-05-17T08:10:00;7.33;;;1.40;;
13560;SDS011;6852;51.686;5.314;2023-05-17T08:12:27;8.10;;;2.10;;
13560;SDS011;6852;51.686;5.314;2023-05-17T08:14:54;6.43;;;1.40;;
13560;SDS011;6852;51.686;5.314;2023-05-17T08:17:21;8.73;;;1.67;;
13560;SDS011;6852;51.686;5.314;2023-05-17T08:19:48;7.90;;;1.63;;
13560;SDS011;6852;51.686;5.314;2023-05-17T08:22:15;9.57;;;1.97;;
13560;SDS011;6852;51.686;5.314;2023-05-17T08:24:42;5.00;;;1.23;;
13560;SDS011;6852;51.686;5.314;2023-05-17T08:27:10;8.73;;;1.67;;
13560;SDS011;6852;51.686;5.314;2023-05-17T08:29:37;6.33;;;1.40;;
13560;SDS011;6852;51.686;5.314;2023-05-17T08:32:05;6.80;;;1.47;;
13560;SDS011;6852;51.686;5.314;2023-05-17T08:34:32;8.73;;;1.50;;
13560;SDS011;6852;51.686;5.314;2023-05-17T08:36:59;5.33;;;1.50;;
13560;SDS011;6852;51.686;5.314;2023-05-17T08:39:26;8.10;;;1.77;;
13560;SDS011;6852;51.686;5.314;2023-05-17T08:41:53;6.73;;;1.40;;
13560;SDS011;6852;51.686;5.314;2023-05-17T08:44:25;6.03;;;1.23;;
13560;SDS011;6852;51.686;5.314;2023-05-17T08:46:53;6.33;;;1.37;;
13560;SDS011;6852;51.686;5.314;2023-05-17T08:49:22;8.03;;;1.57;;
13560;SDS011;6852;51.686;5.314;2023-05-17T08:51:52;6.13;;;1.43;;
13560;SDS011;6852;51.686;5.314;2023-05-17T08:54:19;6.37;;;1.90;;
13560;SDS011;6852;51.686;5.314;2023-05-17T08:56:47;8.20;;;1.43;;
13560;SDS011;6852;51.686;5.314;2023-05-17T08:59:17;7.90;;;1.60;;
13560;SDS011;6852;51.686;5.314;2023-05-17T09:01:46;9.30;;;1.80;;
13560;SDS011;6852;51.686;5.314;2023-05-17T09:04:16;4.50;;;1.50;;
13560;SDS011;6852;51.686;5.314;2023-05-17T09:06:44;5.63;;;1.43;;
13560;SDS011;6852;51.686;5.314;2023-05-17T09:09:11;3.00;;;1.20;;
13560;SDS011;6852;51.686;5.314;2023-05-17T09:11:38;10.03;;;1.83;;
13560;SDS011;6852;51.686;5.314;2023-05-17T09:14:06;7.93;;;1.90;;
13560;SDS011;6852;51.686;5.314;2023-05-17T09:16:34;5.40;;;1.40;;
13560;SDS011;6852;51.686;5.314;2023-05-17T09:19:03;7.70;;;1.40;;
13560;SDS011;6852;51.686;5.314;2023-05-17T09:21:31;9.23;;;1.83;;
13560;SDS011;6852;51.686;5.314;2023-05-17T09:23:59;9.07;;;1.60;;
13560;SDS011;6852;51.686;5.314;2023-05-17T09:26:40;5.47;;;1.23;;
13560;SDS011;6852;51.686;5.314;2023-05-17T09:29:09;5.30;;;1.23;;
13560;SDS011;6852;51.686;5.314;2023-05-17T09:31:37;7.50;;;1.60;;
13560;SDS011;6852;51.686;5.314;2023-05-17T09:34:05;8.73;;;1.73;;
13560;SDS011;6852;51.686;5.314;2023-05-17T09:36:34;27.33;;;4.23;;
13560;SDS011;6852;51.686;5.314;2023-05-17T09:39:03;4.93;;;0.90;;
13560;SDS011;6852;51.686;5.314;2023-05-17T09:41:39;3.53;;;1.00;;
13560;SDS011;6852;51.686;5.314;2023-05-17T09:44:12;10.47;;;1.60;;
13560;SDS011;6852;51.686;5.314;2023-05-17T09:46:40;5.53;;;1.37;;
13560;SDS011;6852;51.686;5.314;2023-05-17T09:49:10;5.47;;;1.20;;
13560;SDS011;6852;51.686;5.314;2023-05-17T09:51:42;4.17;;;1.17;;
13560;SDS011;6852;51.686;5.314;2023-05-17T09:54:10;6.10;;;1.37;;
13560;SDS011;6852;51.686;5.314;2023-05-17T09:56:37;11.10;;;1.50;;
13560;SDS011;6852;51.686;5.314;2023-05-17T09:59:12;6.23;;;1.50;;
13560;SDS011;6852;51.686;5.314;2023-05-17T10:01:41;6.83;;;1.10;;
13560;SDS011;6852;51.686;5.314;2023-05-17T10:04:12;5.70;;;1.27;;
13560;SDS011;6852;51.686;5.314;2023-05-17T10:06:45;3.80;;;1.60;;
13560;SDS011;6852;51.686;5.314;2023-05-17T10:09:17;4.60;;;1.00;;
13560;SDS011;6852;51.686;5.314;2023-05-17T10:11:48;14.77;;;2.20;;
13560;SDS011;6852;51.686;5.314;2023-05-17T10:14:20;11.63;;;1.33;;
13560;SDS011;6852;51.686;5.314;2023-05-17T10:16:52;5.23;;;1.20;;
13560;SDS011;6852;51.686;5.314;2023-05-17T10:19:20;5.23;;;1.17;;
13560;SDS011;6852;51.686;5.314;2023-05-17T10:21:49;4.67;;;1.33;;
13560;SDS011;6852;51.686;5.314;2023-05-17T10:24:16;3.17;;;1.40;;
13560;SDS011;6852;51.686;5.314;2023-05-17T10:26:48;4.47;;;1.30;;
13560;SDS011;6852;51.686;5.314;2023-05-17T10:29:16;2.90;;;1.07;;
13560;SDS011;6852;51.686;5.314;2023-05-17T10:31:46;5.07;;;1.10;;
13560;SDS011;6852;51.686;5.314;2023-05-17T10:34:18;4.33;;;1.50;;
13560;SDS011;6852;51.686;5.314;2023-05-17T10:36:47;4.30;;;1.23;;
13560;SDS011;6852;51.686;5.314;2023-05-17T10:39:15;3.67;;;1.23;;
13560;SDS011;6852;51.686;5.314;2023-05-17T10:41:42;4.47;;;1.00;;
13560;SDS011;6852;51.686;5.314;2023-05-17T10:44:13;5.90;;;1.30;;
13560;SDS011;6852;51.686;5.314;2023-05-17T10:46:54;5.03;;;1.40;;
13560;SDS011;6852;51.686;5.314;2023-05-17T10:49:23;6.03;;;1.03;;
13560;SDS011;6852;51.686;5.314;2023-05-17T10:51:52;3.17;;;0.90;;
13560;SDS011;6852;51.686;5.314;2023-05-17T10:54:20;7.13;;;1.70;;
13560;SDS011;6852;51.686;5.314;2023-05-17T10:57:00;3.00;;;1.20;;
13560;SDS011;6852;51.686;5.314;2023-05-17T10:59:34;4.03;;;1.10;;
13560;SDS011;6852;51.686;5.314;2023-05-17T11:02:05;2.97;;;1.07;;
13560;SDS011;6852;51.686;5.314;2023-05-17T11:04:36;5.27;;;1.37;;
13560;SDS011;6852;51.686;5.314;2023-05-17T11:15:11;2.97;;;1.27;;
13560;SDS011;6852;51.686;5.314;2023-05-17T11:20:28;5.87;;;1.20;;
13560;SDS011;6852;51.686;5.314;2023-05-17T11:23:04;4.77;;;1.47;;
13560;SDS011;6852;51.686;5.314;2023-05-17T11:25:41;6.13;;;2.03;;
13560;SDS011;6852;51.686;5.314;2023-05-17T11:28:17;10.17;;;1.43;;
13560;SDS011;6852;51.686;5.314;2023-05-17T11:30:45;4.70;;;1.30;;
13560;SDS011;6852;51.686;5.314;2023-05-17T11:33:17;6.10;;;1.40;;
13560;SDS011;6852;51.686;5.314;2023-05-17T11:36:02;3.23;;;1.13;;
13560;SDS011;6852;51.686;5.314;2023-05-17T11:38:32;4.63;;;1.83;;
13560;SDS011;6852;51.686;5.314;2023-05-17T11:41:14;5.13;;;1.40;;
13560;SDS011;6852;51.686;5.314;2023-05-17T11:43:49;6.13;;;1.67;;
13560;SDS011;6852;51.686;5.314;2023-05-17T11:46:18;5.20;;;1.13;;
13560;SDS011;6852;51.686;5.314;2023-05-17T11:48:46;5.40;;;1.23;;
13560;SDS011;6852;51.686;5.314;2023-05-17T11:51:15;2.87;;;0.90;;
13560;SDS011;6852;51.686;5.314;2023-05-17T11:53:43;8.70;;;1.57;;
13560;SDS011;6852;51.686;5.314;2023-05-17T11:56:12;4.30;;;1.00;;
13560;SDS011;6852;51.686;5.314;2023-05-17T11:58:40;4.43;;;1.07;;
13560;SDS011;6852;51.686;5.314;2023-05-17T12:01:08;4.17;;;1.10;;
13560;SDS011;6852;51.686;5.314;2023-05-17T12:03:36;6.33;;;1.30;;
13560;SDS011;6852;51.686;5.314;2023-05-17T12:06:12;12.30;;;2.10;;
13560;SDS011;6852;51.686;5.314;2023-05-17T12:08:45;3.73;;;1.33;;
13560;SDS011;6852;51.686;5.314;2023-05-17T12:11:15;13.37;;;1.97;;
13560;SDS011;6852;51.686;5.314;2023-05-17T12:13:44;4.63;;;1.20;;
13560;SDS011;6852;51.686;5.314;2023-05-17T12:16:14;5.33;;;1.20;;
13560;SDS011;6852;51.686;5.314;2023-05-17T12:18:46;4.30;;;1.30;;
13560;SDS011;6852;51.686;5.314;2023-05-17T12:21:15;3.17;;;1.13;;
13560;SDS011;6852;51.686;5.314;2023-05-17T12:23:44;33.80;;;4.37;;
13560;SDS011;6852;51.686;5.314;2023-05-17T12:26:15;5.73;;;1.70;;
13560;SDS011;6852;51.686;5.314;2023-05-17T12:28:43;4.77;;;1.00;;
13560;SDS011;6852;51.686;5.314;2023-05-17T12:31:37;4.37;;;1.87;;
13560;SDS011;6852;51.686;5.314;2023-05-17T12:34:06;5.23;;;1.03;;
13560;SDS011;6852;51.686;5.314;2023-05-17T12:36:39;5.27;;;1.30;;
13560;SDS011;6852;51.686;5.314;2023-05-17T12:39:08;5.23;;;1.23;;
13560;SDS011;6852;51.686;5.314;2023-05-17T12:41:36;5.93;;;1.27;;
13560;SDS011;6852;51.686;5.314;2023-05-17T12:44:05;10.87;;;2.27;;
13560;SDS011;6852;51.686;5.314;2023-05-17T12:46:41;6.37;;;1.07;;
13560;SDS011;6852;51.686;5.314;2023-05-17T12:49:09;6.00;;;1.20;;
13560;SDS011;6852;51.686;5.314;2023-05-17T12:51:41;3.20;;;1.13;;
13560;SDS011;6852;51.686;5.314;2023-05-17T12:54:09;3.00;;;1.33;;
13560;SDS011;6852;51.686;5.314;2023-05-17T12:56:39;6.63;;;1.30;;
13560;SDS011;6852;51.686;5.314;2023-05-17T13:01:36;7.17;;;1.20;;
13560;SDS011;6852;51.686;5.314;2023-05-17T13:04:09;12.80;;;2.50;;
13560;SDS011;6852;51.686;5.314;2023-05-17T13:06:44;3.70;;;1.17;;
13560;SDS011;6852;51.686;5.314;2023-05-17T13:09:19;3.73;;;1.50;;
13560;SDS011;6852;51.686;5.314;2023-05-17T13:11:53;3.87;;;0.87;;
13560;SDS011;6852;51.686;5.314;2023-05-17T13:14:36;4.90;;;1.20;;
13560;SDS011;6852;51.686;5.314;2023-05-17T13:19:46;4.97;;;1.40;;
13560;SDS011;6852;51.686;5.314;2023-05-17T13:22:13;3.17;;;1.20;;
13560;SDS011;6852;51.686;5.314;2023-05-17T13:24:41;5.10;;;1.17;;
13560;SDS011;6852;51.686;5.314;2023-05-17T13:27:09;4.70;;;1.10;;
13560;SDS011;6852;51.686;5.314;2023-05-17T13:29:38;4.43;;;1.20;;
13560;SDS011;6852;51.686;5.314;2023-05-17T13:32:07;3.87;;;1.30;;
13560;SDS011;6852;51.686;5.314;2023-05-17T13:34:35;5.10;;;1.10;;
13560;SDS011;6852;51.686;5.314;2023-05-17T13:37:02;6.00;;;1.10;;
13560;SDS011;6852;51.686;5.314;2023-05-17T13:39:33;3.73;;;1.13;;
13560;SDS011;6852;51.686;5.314;2023-05-17T13:41:59;5.80;;;1.57;;
13560;SDS011;6852;51.686;5.314;2023-05-17T13:44:26;6.70;;;1.00;;
13560;SDS011;6852;51.686;5.314;2023-05-17T13:46:53;4.73;;;1.30;;
13560;SDS011;6852;51.686;5.314;2023-05-17T13:49:20;6.93;;;1.90;;
13560;SDS011;6852;51.686;5.314;2023-05-17T13:51:47;3.20;;;1.27;;
13560;SDS011;6852;51.686;5.314;2023-05-17T13:54:14;4.37;;;1.13;;
13560;SDS011;6852;51.686;5.314;2023-05-17T13:56:41;4.77;;;1.53;;
13560;SDS011;6852;51.686;5.314;2023-05-17T13:59:08;4.80;;;1.40;;
13560;SDS011;6852;51.686;5.314;2023-05-17T14:01:35;6.87;;;1.23;;
13560;SDS011;6852;51.686;5.314;2023-05-17T14:04:02;3.53;;;1.00;;
13560;SDS011;6852;51.686;5.314;2023-05-17T14:06:29;3.23;;;1.00;;
13560;SDS011;6852;51.686;5.314;2023-05-17T14:08:56;4.17;;;1.20;;
13560;SDS011;6852;51.686;5.314;2023-05-17T14:11:26;4.13;;;1.40;;
13560;SDS011;6852;51.686;5.314;2023-05-17T14:13:53;4.87;;;1.33;;
13560;SDS011;6852;51.686;5.314;2023-05-17T14:16:20;6.43;;;1.47;;
13560;SDS011;6852;51.686;5.314;2023-05-17T14:18:48;7.97;;;1.60;;
13560;SDS011;6852;51.686;5.314;2023-05-17T14:21:15;4.50;;;1.40;;
13560;SDS011;6852;51.686;5.314;2023-05-17T14:23:42;6.90;;;1.60;;
13560;SDS011;6852;51.686;5.314;2023-05-17T14:26:09;5.47;;;1.50;;
13560;SDS011;6852;51.686;5.314;2023-05-17T14:28:37;6.90;;;2.40;;
13560;SDS011;6852;51.686;5.314;2023-05-17T14:31:05;4.33;;;1.77;;
13560;SDS011;6852;51.686;5.314;2023-05-17T14:33:32;3.50;;;1.20;;
13560;SDS011;6852;51.686;5.314;2023-05-17T14:35:59;3.90;;;1.50;;
13560;SDS011;6852;51.686;5.314;2023-05-17T14:38:26;9.43;;;1.97;;
13560;SDS011;6852;51.686;5.314;2023-05-17T14:40:53;4.53;;;1.27;;
13560;SDS011;6852;51.686;5.314;2023-05-17T14:43:21;6.40;;;1.30;;
13560;SDS011;6852;51.686;5.314;2023-05-17T14:45:48;7.70;;;1.40;;
13560;SDS011;6852;51.686;5.314;2023-05-17T14:48:15;7.27;;;1.70;;
13560;SDS011;6852;51.686;5.314;2023-05-17T14:50:42;3.63;;;1.40;;
13560;SDS011;6852;51.686;5.314;2023-05-17T14:53:09;5.40;;;1.30;;
13560;SDS011;6852;51.686;5.314;2023-05-17T14:55:36;4.83;;;1.60;;
13560;SDS011;6852;51.686;5.314;2023-05-17T14:58:03;6.90;;;2.03;;
13560;SDS011;6852;51.686;5.314;2023-05-17T15:00:30;4.83;;;1.73;;
13560;SDS011;6852;51.686;5.314;2023-05-17T15:02:57;5.07;;;1.60;;
13560;SDS011;6852;51.686;5.314;2023-05-17T15:05:24;5.30;;;1.53;;
13560;SDS011;6852;51.686;5.314;2023-05-17T15:07:51;2.13;;;1.30;;
13560;SDS011;6852;51.686;5.314;2023-05-17T15:10:18;4.60;;;1.37;;
13560;SDS011;6852;51.686;5.314;2023-05-17T15:12:45;5.50;;;1.40;;
13560;SDS011;6852;51.686;5.314;2023-05-17T15:15:12;2.87;;;1.10;;
13560;SDS011;6852;51.686;5.314;2023-05-17T15:17:39;4.20;;;1.30;;
13560;SDS011;6852;51.686;5.314;2023-05-17T15:20:07;5.27;;;1.30;;
13560;SDS011;6852;51.686;5.314;2023-05-17T15:22:34;5.20;;;1.20;;
13560;SDS011;6852;51.686;5.314;2023-05-17T15:25:02;4.90;;;1.50;;
13560;SDS011;6852;51.686;5.314;2023-05-17T15:27:29;4.37;;;1.30;;
13560;SDS011;6852;51.686;5.314;2023-05-17T15:29:56;9.30;;;2.33;;